(°C)
19°
20°
20°
21°
22°
23°
24°
(°C)
20°
21°
21°
22°
22°
23°
24°
WSW
WSW
WSW
W
W
W
W
(km/h)
7-16
8-15
8-16
10-18
11-21
13-23
13-24
(mm)
0
0
0.2
0.2
0.3
0.4
0.3
(%)
34
38
49
53
57
61
50

Sonnenhöhe

/ 9.9°
sun-icon
UV 7
05:37
20:22
Abnehmender Halbmond (338°)
04:32
18:50

METAR für Wilmington Manor (KILG)

Zeit Bedingungen Temperatur/
Taupunkt
Wind Sichtweite Wetter Wolken Druck Änderung Roh
VFR 18.3°C / 17.2°C 270º 5kt >10km 0.13mm precipitation Overcast 11000ft 1006 - KILG 280951Z AUTO 27005KT 10SM OVC110 18/17 A2973 RMK AO2 RAB22E31 SLP067 P0000 T01830172
VFR 18.9°C / 17.2°C 270º 6kt >10km Light Rain 0.13mm precipitation Scattered Clouds 900ft
Overcast 11000ft
- KILG 280924Z AUTO 27006KT 10SM -RA SCT009 OVC110 19/17 A2973 RMK AO2 RAB22 P0000 T01890172
MVFR 18.9°C / 17.8°C 270º variable 007º to 014º 5kt >10km - Broken Clouds 1000ft
Overcast 11000ft
- KILG 280914Z AUTO 27005KT 10SM BKN010 OVC110 19/18 A2973 RMK AO2 CIG 007V014 T01890178
IFR 18.9°C / 17.8°C 250º variable 004º to 012º 7kt >10km 0.13mm precipitation Broken Clouds 800ft
Broken Clouds 1200ft
Overcast 11000ft
1006 - KILG 280851Z AUTO 25007KT 10SM BKN008 BKN012 OVC110 19/18 A2974 RMK AO2 RAE0752B22E30 CIG 004V012 SLP069 P0000 60000 T01890178 55000
IFR 18.3°C / 17.8°C 230º variable 003º to 007º 4kt >10km 0.13mm precipitation Overcast 500ft - KILG 280811Z AUTO 23004KT 10SM OVC005 18/18 A2973 RMK AO2 RAE0752 CIG 003V007 P0000 T01830178
LIFR 18.3°C / 17.8°C 240º 4kt >10km Light Rain 0.13mm precipitation Overcast 300ft 1006 - KILG 280751Z AUTO 24004KT 10SM -RA OVC003 18/18 A2973 RMK AO2 RAB37 SLP065 P0000 T01830178
LIFR 18.3°C / 17.8°C 240º 5kt >10km Light Rain 0.13mm precipitation Overcast 400ft - KILG 280741Z AUTO 24005KT 10SM -RA OVC004 18/18 A2973 RMK AO2 RAB37 P0000 T01830178
IFR 18.3°C / 17.2°C 260º variable 005º to 010º 3kt >10km - Broken Clouds 700ft
Overcast 2800ft
1006 - KILG 280651Z AUTO 26003KT 10SM BKN007 OVC028 18/17 A2974 RMK AO2 CIG 005V010 SLP069 T01830172
IFR 18.3°C / 17.2°C 220º variable 005º to 010º 3kt >10km - Broken Clouds 800ft
Broken Clouds 3500ft
- KILG 280636Z AUTO 22003KT 10SM BKN008 BKN035 18/17 A2974 RMK AO2 CIG 005V010 T01830172
VFR 18.9°C / 17.8°C variable 0kt >10km - Scattered Clouds 500ft 1006 - KILG 280551Z AUTO 00000KT 10SM SCT005 19/18 A2974 RMK AO2 SLP069 60021 T01890178 10200 20189 56015
VFR 18.9°C / 18.3°C 170º 5kt >10km - Few Clouds 500ft - KILG 280518Z AUTO 17005KT 10SM FEW005 19/18 A2973 RMK AO2 T01890183
IFR 19.4°C / 18.9°C 220º variable 002º to 009º 8kt >10km 0.13mm precipitation Overcast 500ft 1007 - KILG 280451Z AUTO 22008KT 9SM OVC005 19/19 A2975 RMK AO2 RAE0354 CIG 002V009 SLP074 P0000 T01940189 402440183
LIFR 19.4°C / 18.9°C 170º 5kt >10km 0.13mm precipitation Broken Clouds 400ft
Overcast 11000ft
- KILG 280403Z AUTO 17005KT 8SM BKN004 OVC110 19/19 A2975 RMK AO2 LTG DSNT NE RAE0354 P0000 T01940189
IFR 19.4°C / 18.9°C 160º 6kt >10km Light Rain 4.57mm precipitation Broken Clouds 500ft
Broken Clouds 7500ft
Overcast 11000ft
1007 - KILG 280351Z AUTO 16006KT 10SM -RA BKN005 BKN075 OVC110 19/19 A2975 RMK AO2 LTG DSNT NE AND E TSB0252E11 SLP075 P0018 T01940189
IFR 20°C / 18.9°C 150º 6kt >10km Light Rain 4.32mm precipitation Broken Clouds 500ft
Broken Clouds 1000ft
Overcast 7500ft
- KILG 280334Z AUTO 15006KT 9SM -RA BKN005 BKN010 OVC075 20/19 A2976 RMK AO2 LTG DSNT NE AND E TSB0252E11 P0017 T02000189
IFR 20°C / 18.9°C 130º 4kt 4800m in the Vicinity Thunderstorm Rain Mist 3.56mm precipitation Broken Clouds 500ft
Broken Clouds 1300ft
Overcast 5000ft
- KILG 280311Z AUTO 13004KT 3SM VCTS RA BR BKN005 BKN013 OVC050 20/19 A2977 RMK AO2 LTG DSNT ALQDS TSB0252E11 P0014 T02000189
IFR 20°C / 18.9°C 210º 4kt 2800m Heavy Thunderstorm Rain Mist 0.76mm precipitation Scattered Clouds 600ft
Broken Clouds 1400ft
Overcast 5000ft
- KILG 280255Z 21004KT 1 3/4SM +TSRA BR SCT006 BKN014 OVC050 20/19 A2978 RMK AO2 LTG DSNT ALQDS TSB52 P0003 T02000189
IFR 20°C / 18.9°C 230º 4kt 4000m in the Vicinity Thunderstorm Heavy Rain Mist 0.76mm precipitation Scattered Clouds 600ft
Broken Clouds 2000ft
Overcast 5000ft
1008 - KILG 280251Z 23004KT 2 1/2SM VCTS +RA BR SCT006 BKN020 OVC050 20/19 A2978 RMK AO2 LTG DSNT ALQDS RAB13 TSB32E47 SLP084 P0003 60003 T02000189 56011
VFR 20°C / 18.9°C 140º 4kt >10km Light Thunderstorm Rain 0.13mm precipitation Scattered Clouds 900ft
Broken Clouds 3900ft
Overcast 5000ft
- KILG 280232Z 14004KT 9SM -TSRA SCT009 BKN039 OVC050 20/19 A2978 RMK AO2 LTG DSNT S-NW RAB13 TSB32 P0000 T02000189
IFR 20°C / 18.9°C 140º 8kt >10km - Overcast 500ft 1008 - KILG 280151Z 14008KT 10SM OVC005 20/19 A2979 RMK AO2 LTG DSNT SW SLP087 T02000189
IFR 20°C / 18.9°C 150º 7kt >10km - Broken Clouds 700ft
Overcast 1200ft
- KILG 280142Z 15007KT 10SM BKN007 OVC012 20/19 A2980 RMK AO2 T02000189
MVFR 20°C / 18.9°C 140º 9kt >10km - Scattered Clouds 700ft
Broken Clouds 1100ft
Overcast 1700ft
- KILG 280107Z 14009KT 10SM SCT007 BKN011 OVC017 20/19 A2980 RMK AO2 T02000189
MVFR 20°C / 18.3°C 150º 9kt >10km - Scattered Clouds 700ft
Scattered Clouds 1100ft
Overcast 1700ft
1009 - KILG 280051Z 15009KT 10SM SCT007 SCT011 OVC017 20/18 A2980 RMK AO2 SLP090 T02000183
MVFR 20°C / 18.3°C 160º 11kt >10km - Scattered Clouds 800ft
Overcast 1600ft
- KILG 280013Z 16011KT 10SM SCT008 OVC016 20/18 A2981 RMK AO2 T02000183

VFR

18.3°C / 17.2°C

[Mehr]
Wind 270º 5kt
Sichtweite >10km
Wetter 0.13mm precipitation
Wolken Overcast 11000ft
Druck 1006
Änderung -
Roh KILG 280951Z AUTO 27005KT 10SM OVC110 18/17 A2973 RMK AO2 RAB22E31 SLP067 P0000 T01830172

VFR

18.9°C / 17.2°C

[Mehr]
Wind 270º 6kt
Sichtweite >10km
Wetter Light Rain 0.13mm precipitation
Wolken Scattered Clouds 900ft
Overcast 11000ft
Druck
Änderung -
Roh KILG 280924Z AUTO 27006KT 10SM -RA SCT009 OVC110 19/17 A2973 RMK AO2 RAB22 P0000 T01890172

MVFR

18.9°C / 17.8°C

[Mehr]
Wind 270º variable 007º to 014º 5kt
Sichtweite >10km
Wetter -
Wolken Broken Clouds 1000ft
Overcast 11000ft
Druck
Änderung -
Roh KILG 280914Z AUTO 27005KT 10SM BKN010 OVC110 19/18 A2973 RMK AO2 CIG 007V014 T01890178

IFR

18.9°C / 17.8°C

[Mehr]
Wind 250º variable 004º to 012º 7kt
Sichtweite >10km
Wetter 0.13mm precipitation
Wolken Broken Clouds 800ft
Broken Clouds 1200ft
Overcast 11000ft
Druck 1006
Änderung -
Roh KILG 280851Z AUTO 25007KT 10SM BKN008 BKN012 OVC110 19/18 A2974 RMK AO2 RAE0752B22E30 CIG 004V012 SLP069 P0000 60000 T01890178 55000

IFR

18.3°C / 17.8°C

[Mehr]
Wind 230º variable 003º to 007º 4kt
Sichtweite >10km
Wetter 0.13mm precipitation
Wolken Overcast 500ft
Druck
Änderung -
Roh KILG 280811Z AUTO 23004KT 10SM OVC005 18/18 A2973 RMK AO2 RAE0752 CIG 003V007 P0000 T01830178

LIFR

18.3°C / 17.8°C

[Mehr]
Wind 240º 4kt
Sichtweite >10km
Wetter Light Rain 0.13mm precipitation
Wolken Overcast 300ft
Druck 1006
Änderung -
Roh KILG 280751Z AUTO 24004KT 10SM -RA OVC003 18/18 A2973 RMK AO2 RAB37 SLP065 P0000 T01830178

LIFR

18.3°C / 17.8°C

[Mehr]
Wind 240º 5kt
Sichtweite >10km
Wetter Light Rain 0.13mm precipitation
Wolken Overcast 400ft
Druck
Änderung -
Roh KILG 280741Z AUTO 24005KT 10SM -RA OVC004 18/18 A2973 RMK AO2 RAB37 P0000 T01830178

IFR

18.3°C / 17.2°C

[Mehr]
Wind 260º variable 005º to 010º 3kt
Sichtweite >10km
Wetter -
Wolken Broken Clouds 700ft
Overcast 2800ft
Druck 1006
Änderung -
Roh KILG 280651Z AUTO 26003KT 10SM BKN007 OVC028 18/17 A2974 RMK AO2 CIG 005V010 SLP069 T01830172

IFR

18.3°C / 17.2°C

[Mehr]
Wind 220º variable 005º to 010º 3kt
Sichtweite >10km
Wetter -
Wolken Broken Clouds 800ft
Broken Clouds 3500ft
Druck
Änderung -
Roh KILG 280636Z AUTO 22003KT 10SM BKN008 BKN035 18/17 A2974 RMK AO2 CIG 005V010 T01830172

VFR

18.9°C / 17.8°C

[Mehr]
Wind variable 0kt
Sichtweite >10km
Wetter -
Wolken Scattered Clouds 500ft
Druck 1006
Änderung -
Roh KILG 280551Z AUTO 00000KT 10SM SCT005 19/18 A2974 RMK AO2 SLP069 60021 T01890178 10200 20189 56015

VFR

18.9°C / 18.3°C

[Mehr]
Wind 170º 5kt
Sichtweite >10km
Wetter -
Wolken Few Clouds 500ft
Druck
Änderung -
Roh KILG 280518Z AUTO 17005KT 10SM FEW005 19/18 A2973 RMK AO2 T01890183

IFR

19.4°C / 18.9°C

[Mehr]
Wind 220º variable 002º to 009º 8kt
Sichtweite >10km
Wetter 0.13mm precipitation
Wolken Overcast 500ft
Druck 1007
Änderung -
Roh KILG 280451Z AUTO 22008KT 9SM OVC005 19/19 A2975 RMK AO2 RAE0354 CIG 002V009 SLP074 P0000 T01940189 402440183

LIFR

19.4°C / 18.9°C

[Mehr]
Wind 170º 5kt
Sichtweite >10km
Wetter 0.13mm precipitation
Wolken Broken Clouds 400ft
Overcast 11000ft
Druck
Änderung -
Roh KILG 280403Z AUTO 17005KT 8SM BKN004 OVC110 19/19 A2975 RMK AO2 LTG DSNT NE RAE0354 P0000 T01940189

IFR

19.4°C / 18.9°C

[Mehr]
Wind 160º 6kt
Sichtweite >10km
Wetter Light Rain 4.57mm precipitation
Wolken Broken Clouds 500ft
Broken Clouds 7500ft
Overcast 11000ft
Druck 1007
Änderung -
Roh KILG 280351Z AUTO 16006KT 10SM -RA BKN005 BKN075 OVC110 19/19 A2975 RMK AO2 LTG DSNT NE AND E TSB0252E11 SLP075 P0018 T01940189

IFR

20°C / 18.9°C

[Mehr]
Wind 150º 6kt
Sichtweite >10km
Wetter Light Rain 4.32mm precipitation
Wolken Broken Clouds 500ft
Broken Clouds 1000ft
Overcast 7500ft
Druck
Änderung -
Roh KILG 280334Z AUTO 15006KT 9SM -RA BKN005 BKN010 OVC075 20/19 A2976 RMK AO2 LTG DSNT NE AND E TSB0252E11 P0017 T02000189

IFR

20°C / 18.9°C

[Mehr]
Wind 130º 4kt
Sichtweite 4800m
Wetter in the Vicinity Thunderstorm Rain Mist 3.56mm precipitation
Wolken Broken Clouds 500ft
Broken Clouds 1300ft
Overcast 5000ft
Druck
Änderung -
Roh KILG 280311Z AUTO 13004KT 3SM VCTS RA BR BKN005 BKN013 OVC050 20/19 A2977 RMK AO2 LTG DSNT ALQDS TSB0252E11 P0014 T02000189

IFR

20°C / 18.9°C

[Mehr]
Wind 210º 4kt
Sichtweite 2800m
Wetter Heavy Thunderstorm Rain Mist 0.76mm precipitation
Wolken Scattered Clouds 600ft
Broken Clouds 1400ft
Overcast 5000ft
Druck
Änderung -
Roh KILG 280255Z 21004KT 1 3/4SM +TSRA BR SCT006 BKN014 OVC050 20/19 A2978 RMK AO2 LTG DSNT ALQDS TSB52 P0003 T02000189

IFR

20°C / 18.9°C

[Mehr]
Wind 230º 4kt
Sichtweite 4000m
Wetter in the Vicinity Thunderstorm Heavy Rain Mist 0.76mm precipitation
Wolken Scattered Clouds 600ft
Broken Clouds 2000ft
Overcast 5000ft
Druck 1008
Änderung -
Roh KILG 280251Z 23004KT 2 1/2SM VCTS +RA BR SCT006 BKN020 OVC050 20/19 A2978 RMK AO2 LTG DSNT ALQDS RAB13 TSB32E47 SLP084 P0003 60003 T02000189 56011

VFR

20°C / 18.9°C

[Mehr]
Wind 140º 4kt
Sichtweite >10km
Wetter Light Thunderstorm Rain 0.13mm precipitation
Wolken Scattered Clouds 900ft
Broken Clouds 3900ft
Overcast 5000ft
Druck
Änderung -
Roh KILG 280232Z 14004KT 9SM -TSRA SCT009 BKN039 OVC050 20/19 A2978 RMK AO2 LTG DSNT S-NW RAB13 TSB32 P0000 T02000189

IFR

20°C / 18.9°C

[Mehr]
Wind 140º 8kt
Sichtweite >10km
Wetter -
Wolken Overcast 500ft
Druck 1008
Änderung -
Roh KILG 280151Z 14008KT 10SM OVC005 20/19 A2979 RMK AO2 LTG DSNT SW SLP087 T02000189

IFR

20°C / 18.9°C

[Mehr]
Wind 150º 7kt
Sichtweite >10km
Wetter -
Wolken Broken Clouds 700ft
Overcast 1200ft
Druck
Änderung -
Roh KILG 280142Z 15007KT 10SM BKN007 OVC012 20/19 A2980 RMK AO2 T02000189

MVFR

20°C / 18.9°C

[Mehr]
Wind 140º 9kt
Sichtweite >10km
Wetter -
Wolken Scattered Clouds 700ft
Broken Clouds 1100ft
Overcast 1700ft
Druck
Änderung -
Roh KILG 280107Z 14009KT 10SM SCT007 BKN011 OVC017 20/19 A2980 RMK AO2 T02000189

MVFR

20°C / 18.3°C

[Mehr]
Wind 150º 9kt
Sichtweite >10km
Wetter -
Wolken Scattered Clouds 700ft
Scattered Clouds 1100ft
Overcast 1700ft
Druck 1009
Änderung -
Roh KILG 280051Z 15009KT 10SM SCT007 SCT011 OVC017 20/18 A2980 RMK AO2 SLP090 T02000183

MVFR

20°C / 18.3°C

[Mehr]
Wind 160º 11kt
Sichtweite >10km
Wetter -
Wolken Scattered Clouds 800ft
Overcast 1600ft
Druck
Änderung -
Roh KILG 280013Z 16011KT 10SM SCT008 OVC016 20/18 A2981 RMK AO2 T02000183

TAF für Wilmington Manor (KILG)

From till


From till Wind variable 3kt. Visibility 10km or more. in the Vicinity Showers . Overcast 500ft.
Temporarly from till Visibility 8000m. Light Showers Rain Mist . Scattered Clouds 500ft. Overcast 1500ft.
From till Wind 260º 5kt. Visibility 10km or more. Few Clouds 1500ft. Broken Clouds 3500ft.
From till Wind 290º 12kt. Visibility 10km or more. in the Vicinity Showers . Scattered Clouds 5000ft.
From till Wind 310º 5kt. Visibility 10km or more. Few Clouds 8000ft.

Roh: KILG 280827Z 2808/2906 VRB03KT P6SM VCSH OVC005 TEMPO 2808/2810 5SM -SHRA BR SCT005 OVC015 FM281000 26005KT P6SM FEW015 BKN035 FM281500 29012KT P6SM VCSH SCT050 FM282300 31005KT P6SM FEW080

Radar- und Niederschlags-Nowcast für Wilmington Manor

Nieselregen
Leicht
Moderat
Stark
Sehr schwer
Hagel

Die Ortsmarkierung zeigt auf Wilmington Manor. Diese Animation zeigt das Niederschlagsradar der letzten Stunde, sowie eine 1h Vorhersage. Nieselregen und leichter Schneefall können für das Radar unsichtbar sein. Die Niederschlagsintensität ist farbcodiert von Hellblau bis Orange.

Aktuelle Satellitenbilder für Wilmington Manor, Vereinigte Staaten

Die Standortmarkierung ist platziert auf Wilmington Manor. [Mehr]

Das Echtzeit-Satellitenbild kombiniert sichtbares Licht während des Tages mit Infrarotstrahlung während der Nacht. Nachts ist das Bild nicht dunkel, da Infrarotstrahlung Temperaturunterschiede erkennen kann. Leider sind niedrige Wolken und Nebel nur schwer von den Bodentemperaturen zu unterscheiden und können daher nachts fast unsichtbar sein. Meteosat-Satellitenbilder für Europa werden alle 5 Minuten in Echtzeit aktualisiert. Die Bilder GOES-16 / GOES-17 (Nord- und Südamerika) und Himawari (Asien) werden alle 10 Minuten aktualisiert.

Zum Anfang